sensor_id;sensor_type;location;lat;lon;timestamp;temperature;humidity
612;DHT22;293;53.888;11.464;2022-10-29T00:02:25;16.10;99.90
612;DHT22;293;53.888;11.464;2022-10-29T00:04:52;16.10;99.90
612;DHT22;293;53.888;11.464;2022-10-29T00:07:19;16.10;99.90
612;DHT22;293;53.888;11.464;2022-10-29T00:09:46;16.10;99.90
612;DHT22;293;53.888;11.464;2022-10-29T00:12:12;16.00;99.90
612;DHT22;293;53.888;11.464;2022-10-29T00:14:40;16.00;99.90
612;DHT22;293;53.888;11.464;2022-10-29T00:17:06;16.00;99.90
612;DHT22;293;53.888;11.464;2022-10-29T00:19:34;16.00;99.90
612;DHT22;293;53.888;11.464;2022-10-29T00:22:01;15.90;99.90
612;DHT22;293;53.888;11.464;2022-10-29T00:24:28;15.90;99.90
612;DHT22;293;53.888;11.464;2022-10-29T00:26:55;15.90;99.90
612;DHT22;293;53.888;11.464;2022-10-29T00:29:22;15.80;99.90
612;DHT22;293;53.888;11.464;2022-10-29T00:31:49;15.80;99.90
612;DHT22;293;53.888;11.464;2022-10-29T00:34:15;15.80;99.90
612;DHT22;293;53.888;11.464;2022-10-29T00:36:43;15.80;99.90
612;DHT22;293;53.888;11.464;2022-10-29T00:39:13;15.70;99.90
612;DHT22;293;53.888;11.464;2022-10-29T00:41:41;15.70;99.90
612;DHT22;293;53.888;11.464;2022-10-29T00:44:28;15.60;99.90
612;DHT22;293;53.888;11.464;2022-10-29T00:46:59;15.60;99.90
612;DHT22;293;53.888;11.464;2022-10-29T00:49:28;15.50;99.90
612;DHT22;293;53.888;11.464;2022-10-29T00:51:59;15.50;99.90
612;DHT22;293;53.888;11.464;2022-10-29T00:54:27;15.50;99.90
612;DHT22;293;53.888;11.464;2022-10-29T00:56:56;15.50;99.90
612;DHT22;293;53.888;11.464;2022-10-29T00:59:23;15.50;99.90
612;DHT22;293;53.888;11.464;2022-10-29T01:01:51;15.40;99.90
612;DHT22;293;53.888;11.464;2022-10-29T01:04:19;15.40;99.90
612;DHT22;293;53.888;11.464;2022-10-29T01:06:46;15.40;99.90
612;DHT22;293;53.888;11.464;2022-10-29T01:09:15;15.30;99.90
612;DHT22;293;53.888;11.464;2022-10-29T01:11:47;15.30;99.90
612;DHT22;293;53.888;11.464;2022-10-29T01:14:25;15.30;99.90
612;DHT22;293;53.888;11.464;2022-10-29T01:17:00;15.30;99.90
612;DHT22;293;53.888;11.464;2022-10-29T01:19:50;15.20;99.90
612;DHT22;293;53.888;11.464;2022-10-29T01:22:24;15.30;99.90
612;DHT22;293;53.888;11.464;2022-10-29T01:25:10;15.20;99.90
612;DHT22;293;53.888;11.464;2022-10-29T01:27:58;15.20;99.90
612;DHT22;293;53.888;11.464;2022-10-29T01:31:02;15.10;99.90
612;DHT22;293;53.888;11.464;2022-10-29T01:33:37;15.10;99.90
612;DHT22;293;53.888;11.464;2022-10-29T01:36:12;15.10;99.90
612;DHT22;293;53.888;11.464;2022-10-29T01:38:47;15.10;99.90
612;DHT22;293;53.888;11.464;2022-10-29T01:41:20;15.00;99.90
612;DHT22;293;53.888;11.464;2022-10-29T01:43:52;15.00;99.90
612;DHT22;293;53.888;11.464;2022-10-29T01:46:24;15.00;99.90
612;DHT22;293;53.888;11.464;2022-10-29T01:48:56;14.90;99.90
612;DHT22;293;53.888;11.464;2022-10-29T01:51:26;14.90;99.90
612;DHT22;293;53.888;11.464;2022-10-29T01:53:54;14.90;99.90
612;DHT22;293;53.888;11.464;2022-10-29T01:56:23;14.90;99.90
612;DHT22;293;53.888;11.464;2022-10-29T01:58:54;14.90;99.90
612;DHT22;293;53.888;11.464;2022-10-29T02:01:35;14.80;99.90
612;DHT22;293;53.888;11.464;2022-10-29T02:04:17;14.80;99.90
612;DHT22;293;53.888;11.464;2022-10-29T02:06:53;14.80;99.90
612;DHT22;293;53.888;11.464;2022-10-29T02:09:29;14.80;99.90
612;DHT22;293;53.888;11.464;2022-10-29T02:12:01;14.70;99.90
612;DHT22;293;53.888;11.464;2022-10-29T02:14:32;14.70;99.90
612;DHT22;293;53.888;11.464;2022-10-29T02:17:00;14.70;99.90
612;DHT22;293;53.888;11.464;2022-10-29T02:19:28;14.70;99.90
612;DHT22;293;53.888;11.464;2022-10-29T02:21:55;14.70;99.90
612;DHT22;293;53.888;11.464;2022-10-29T02:24:22;14.60;99.90
612;DHT22;293;53.888;11.464;2022-10-29T02:26:49;14.60;99.90
612;DHT22;293;53.888;11.464;2022-10-29T02:29:16;14.60;99.90
612;DHT22;293;53.888;11.464;2022-10-29T02:31:43;14.50;99.90
612;DHT22;293;53.888;11.464;2022-10-29T02:34:11;14.50;99.90
612;DHT22;293;53.888;11.464;2022-10-29T02:36:38;14.50;99.90
612;DHT22;293;53.888;11.464;2022-10-29T02:39:05;14.50;99.90
612;DHT22;293;53.888;11.464;2022-10-29T02:41:32;14.50;99.90
612;DHT22;293;53.888;11.464;2022-10-29T02:43:58;14.50;99.90
612;DHT22;293;53.888;11.464;2022-10-29T02:46:25;14.50;99.90
612;DHT22;293;53.888;11.464;2022-10-29T02:48:52;14.40;99.90
612;DHT22;293;53.888;11.464;2022-10-29T02:51:20;14.40;99.90
612;DHT22;293;53.888;11.464;2022-10-29T02:53:47;14.40;99.90
612;DHT22;293;53.888;11.464;2022-10-29T02:56:13;14.40;99.90
612;DHT22;293;53.888;11.464;2022-10-29T02:58:40;14.40;99.90
612;DHT22;293;53.888;11.464;2022-10-29T03:01:07;14.30;99.90
612;DHT22;293;53.888;11.464;2022-10-29T03:03:34;14.30;99.90
612;DHT22;293;53.888;11.464;2022-10-29T03:06:01;14.30;99.90
612;DHT22;293;53.888;11.464;2022-10-29T03:08:29;14.30;99.90
612;DHT22;293;53.888;11.464;2022-10-29T03:10:55;14.30;99.90
612;DHT22;293;53.888;11.464;2022-10-29T03:13:22;14.30;99.90
612;DHT22;293;53.888;11.464;2022-10-29T03:15:49;14.30;99.90
612;DHT22;293;53.888;11.464;2022-10-29T03:18:16;14.30;99.90
612;DHT22;293;53.888;11.464;2022-10-29T03:20:42;14.30;99.90
612;DHT22;293;53.888;11.464;2022-10-29T03:23:11;14.30;99.90
612;DHT22;293;53.888;11.464;2022-10-29T03:25:40;14.30;99.90
612;DHT22;293;53.888;11.464;2022-10-29T03:28:06;14.20;99.90
612;DHT22;293;53.888;11.464;2022-10-29T03:30:33;14.10;99.90
612;DHT22;293;53.888;11.464;2022-10-29T03:33:00;14.20;99.90
612;DHT22;293;53.888;11.464;2022-10-29T03:35:27;14.10;99.90
612;DHT22;293;53.888;11.464;2022-10-29T03:37:53;14.10;99.90
612;DHT22;293;53.888;11.464;2022-10-29T03:40:20;14.10;99.90
612;DHT22;293;53.888;11.464;2022-10-29T03:42:48;14.00;99.90
612;DHT22;293;53.888;11.464;2022-10-29T03:45:15;13.90;99.90
612;DHT22;293;53.888;11.464;2022-10-29T03:47:42;13.90;99.90
612;DHT22;293;53.888;11.464;2022-10-29T03:50:09;13.90;99.90
612;DHT22;293;53.888;11.464;2022-10-29T03:52:36;13.90;99.90
612;DHT22;293;53.888;11.464;2022-10-29T03:55:04;13.80;99.90
612;DHT22;293;53.888;11.464;2022-10-29T03:57:31;13.80;99.90
612;DHT22;293;53.888;11.464;2022-10-29T03:59:59;13.70;99.90
612;DHT22;293;53.888;11.464;2022-10-29T04:02:29;13.70;99.90
612;DHT22;293;53.888;11.464;2022-10-29T04:04:56;13.70;99.90
612;DHT22;293;53.888;11.464;2022-10-29T04:07:23;13.80;99.90
612;DHT22;293;53.888;11.464;2022-10-29T04:09:50;13.70;99.90
612;DHT22;293;53.888;11.464;2022-10-29T04:12:17;13.70;99.90
612;DHT22;293;53.888;11.464;2022-10-29T04:14:44;13.70;99.90
612;DHT22;293;53.888;11.464;2022-10-29T04:17:12;13.70;99.90
612;DHT22;293;53.888;11.464;2022-10-29T04:19:39;13.60;99.90
612;DHT22;293;53.888;11.464;2022-10-29T04:22:06;13.60;99.90
612;DHT22;293;53.888;11.464;2022-10-29T04:24:33;13.60;99.90
612;DHT22;293;53.888;11.464;2022-10-29T04:27:00;13.60;99.90
612;DHT22;293;53.888;11.464;2022-10-29T04:29:26;13.60;99.90
612;DHT22;293;53.888;11.464;2022-10-29T04:31:53;13.60;99.90
612;DHT22;293;53.888;11.464;2022-10-29T04:34:21;13.60;99.90
612;DHT22;293;53.888;11.464;2022-10-29T04:36:48;13.60;99.90
612;DHT22;293;53.888;11.464;2022-10-29T04:39:16;13.60;99.90
612;DHT22;293;53.888;11.464;2022-10-29T04:41:43;13.60;99.90
612;DHT22;293;53.888;11.464;2022-10-29T04:44:12;13.60;99.90
612;DHT22;293;53.888;11.464;2022-10-29T04:46:39;13.60;99.90
612;DHT22;293;53.888;11.464;2022-10-29T04:49:06;13.60;99.90
612;DHT22;293;53.888;11.464;2022-10-29T04:51:34;13.50;99.90
612;DHT22;293;53.888;11.464;2022-10-29T04:54:00;13.50;99.90
612;DHT22;293;53.888;11.464;2022-10-29T04:56:28;13.50;99.90
612;DHT22;293;53.888;11.464;2022-10-29T04:58:55;13.50;99.90
612;DHT22;293;53.888;11.464;2022-10-29T05:01:21;13.50;99.90
612;DHT22;293;53.888;11.464;2022-10-29T05:03:48;13.50;99.90
612;DHT22;293;53.888;11.464;2022-10-29T05:06:15;13.50;99.90
612;DHT22;293;53.888;11.464;2022-10-29T05:08:43;13.50;99.90
612;DHT22;293;53.888;11.464;2022-10-29T05:11:10;13.40;99.90
612;DHT22;293;53.888;11.464;2022-10-29T05:13:36;13.40;99.90
612;DHT22;293;53.888;11.464;2022-10-29T05:16:04;13.50;99.90
612;DHT22;293;53.888;11.464;2022-10-29T05:18:31;13.50;99.90
612;DHT22;293;53.888;11.464;2022-10-29T05:20:57;13.50;99.90
612;DHT22;293;53.888;11.464;2022-10-29T05:23:24;13.60;99.90
612;DHT22;293;53.888;11.464;2022-10-29T05:25:54;13.70;99.90
612;DHT22;293;53.888;11.464;2022-10-29T05:28:22;13.60;99.90
612;DHT22;293;53.888;11.464;2022-10-29T05:30:50;13.60;99.90
612;DHT22;293;53.888;11.464;2022-10-29T05:33:18;13.50;99.90
612;DHT22;293;53.888;11.464;2022-10-29T05:35:45;13.60;99.90
612;DHT22;293;53.888;11.464;2022-10-29T05:38:13;13.60;99.90
612;DHT22;293;53.888;11.464;2022-10-29T05:40:42;13.60;99.90
612;DHT22;293;53.888;11.464;2022-10-29T05:43:11;13.50;99.90
612;DHT22;293;53.888;11.464;2022-10-29T05:45:38;13.60;99.90
612;DHT22;293;53.888;11.464;2022-10-29T05:48:06;13.60;99.90
612;DHT22;293;53.888;11.464;2022-10-29T05:50:33;13.60;99.90
612;DHT22;293;53.888;11.464;2022-10-29T05:53:02;13.60;99.90
612;DHT22;293;53.888;11.464;2022-10-29T05:55:31;13.60;99.90
612;DHT22;293;53.888;11.464;2022-10-29T05:58:00;13.60;99.90
612;DHT22;293;53.888;11.464;2022-10-29T06:00:30;13.60;99.90
612;DHT22;293;53.888;11.464;2022-10-29T06:02:57;13.60;99.90
612;DHT22;293;53.888;11.464;2022-10-29T06:05:24;13.50;99.90
612;DHT22;293;53.888;11.464;2022-10-29T06:07:54;13.50;99.90
612;DHT22;293;53.888;11.464;2022-10-29T06:10:22;13.40;99.90
612;DHT22;293;53.888;11.464;2022-10-29T06:12:49;13.30;99.90
612;DHT22;293;53.888;11.464;2022-10-29T06:15:16;13.30;99.90
612;DHT22;293;53.888;11.464;2022-10-29T06:17:45;13.30;99.90
612;DHT22;293;53.888;11.464;2022-10-29T06:20:13;13.30;99.90
612;DHT22;293;53.888;11.464;2022-10-29T06:22:40;13.30;99.90
612;DHT22;293;53.888;11.464;2022-10-29T06:25:07;13.30;99.90
612;DHT22;293;53.888;11.464;2022-10-29T06:27:35;13.30;99.90
612;DHT22;293;53.888;11.464;2022-10-29T06:30:02;13.30;99.90
612;DHT22;293;53.888;11.464;2022-10-29T06:32:30;13.30;99.90
612;DHT22;293;53.888;11.464;2022-10-29T06:34:58;13.30;99.90
612;DHT22;293;53.888;11.464;2022-10-29T06:37:25;13.30;99.90
612;DHT22;293;53.888;11.464;2022-10-29T06:39:52;13.30;99.90
612;DHT22;293;53.888;11.464;2022-10-29T06:42:18;13.30;99.90
612;DHT22;293;53.888;11.464;2022-10-29T06:44:45;13.30;99.90
612;DHT22;293;53.888;11.464;2022-10-29T06:47:12;13.30;99.90
612;DHT22;293;53.888;11.464;2022-10-29T06:49:38;13.30;99.90
612;DHT22;293;53.888;11.464;2022-10-29T06:52:07;13.40;99.90
612;DHT22;293;53.888;11.464;2022-10-29T06:54:33;13.40;99.90
612;DHT22;293;53.888;11.464;2022-10-29T06:57:00;13.40;99.90
612;DHT22;293;53.888;11.464;2022-10-29T06:59:27;13.50;99.90
612;DHT22;293;53.888;11.464;2022-10-29T07:01:54;13.50;99.90
612;DHT22;293;53.888;11.464;2022-10-29T07:04:21;13.60;99.90
612;DHT22;293;53.888;11.464;2022-10-29T07:06:47;13.70;99.90
612;DHT22;293;53.888;11.464;2022-10-29T07:09:16;13.70;99.90
612;DHT22;293;53.888;11.464;2022-10-29T07:11:42;13.80;99.90
612;DHT22;293;53.888;11.464;2022-10-29T07:14:09;13.80;99.90
612;DHT22;293;53.888;11.464;2022-10-29T07:16:36;13.90;99.90
612;DHT22;293;53.888;11.464;2022-10-29T07:19:03;13.90;99.90
612;DHT22;293;53.888;11.464;2022-10-29T07:21:30;13.90;99.90
612;DHT22;293;53.888;11.464;2022-10-29T07:23:57;13.90;99.90
612;DHT22;293;53.888;11.464;2022-10-29T07:26:25;14.00;99.90
612;DHT22;293;53.888;11.464;2022-10-29T07:28:53;14.10;99.90
612;DHT22;293;53.888;11.464;2022-10-29T07:31:22;14.10;99.90
612;DHT22;293;53.888;11.464;2022-10-29T07:33:49;14.20;99.90
612;DHT22;293;53.888;11.464;2022-10-29T07:36:15;14.20;99.90
612;DHT22;293;53.888;11.464;2022-10-29T07:38:42;14.20;99.90
612;DHT22;293;53.888;11.464;2022-10-29T07:41:09;14.20;99.90
612;DHT22;293;53.888;11.464;2022-10-29T07:43:37;14.20;99.90
612;DHT22;293;53.888;11.464;2022-10-29T07:46:04;14.30;99.90
612;DHT22;293;53.888;11.464;2022-10-29T07:48:31;14.30;99.90
612;DHT22;293;53.888;11.464;2022-10-29T07:50:58;14.30;99.90
612;DHT22;293;53.888;11.464;2022-10-29T07:53:25;14.40;99.90
612;DHT22;293;53.888;11.464;2022-10-29T07:55:55;14.50;99.90
612;DHT22;293;53.888;11.464;2022-10-29T07:58:23;14.60;99.90
612;DHT22;293;53.888;11.464;2022-10-29T08:00:51;14.70;99.90
612;DHT22;293;53.888;11.464;2022-10-29T08:03:18;14.80;99.90
612;DHT22;293;53.888;11.464;2022-10-29T08:05:45;14.90;99.90
612;DHT22;293;53.888;11.464;2022-10-29T08:08:14;14.80;99.90
612;DHT22;293;53.888;11.464;2022-10-29T08:10:42;14.90;99.90
612;DHT22;293;53.888;11.464;2022-10-29T08:13:08;15.00;99.90
612;DHT22;293;53.888;11.464;2022-10-29T08:15:35;15.10;99.90
612;DHT22;293;53.888;11.464;2022-10-29T08:18:08;15.10;99.90
612;DHT22;293;53.888;11.464;2022-10-29T08:20:36;15.10;99.90
612;DHT22;293;53.888;11.464;2022-10-29T08:23:03;15.20;99.90
612;DHT22;293;53.888;11.464;2022-10-29T08:25:30;15.30;99.90
612;DHT22;293;53.888;11.464;2022-10-29T08:27:57;15.40;99.90
612;DHT22;293;53.888;11.464;2022-10-29T08:30:24;15.30;99.90
612;DHT22;293;53.888;11.464;2022-10-29T08:32:51;15.30;99.90
612;DHT22;293;53.888;11.464;2022-10-29T08:35:19;15.30;99.90
612;DHT22;293;53.888;11.464;2022-10-29T08:37:46;15.40;99.90
612;DHT22;293;53.888;11.464;2022-10-29T08:40:20;15.40;99.90
612;DHT22;293;53.888;11.464;2022-10-29T08:43:24;15.30;99.90
612;DHT22;293;53.888;11.464;2022-10-29T08:45:54;15.20;99.90
612;DHT22;293;53.888;11.464;2022-10-29T08:48:27;15.10;99.90
612;DHT22;293;53.888;11.464;2022-10-29T08:51:07;15.30;99.90
612;DHT22;293;53.888;11.464;2022-10-29T08:53:37;15.30;99.90
612;DHT22;293;53.888;11.464;2022-10-29T08:56:09;15.50;99.90
612;DHT22;293;53.888;11.464;2022-10-29T08:58:42;15.60;99.90
612;DHT22;293;53.888;11.464;2022-10-29T09:01:11;15.70;99.90
612;DHT22;293;53.888;11.464;2022-10-29T09:03:38;15.80;99.90
612;DHT22;293;53.888;11.464;2022-10-29T09:06:10;15.90;99.90
612;DHT22;293;53.888;11.464;2022-10-29T09:08:56;16.00;99.90
612;DHT22;293;53.888;11.464;2022-10-29T09:11:46;15.90;99.90
612;DHT22;293;53.888;11.464;2022-10-29T09:14:43;15.90;99.90
612;DHT22;293;53.888;11.464;2022-10-29T09:17:21;15.90;99.90
612;DHT22;293;53.888;11.464;2022-10-29T09:20:07;16.00;99.90
612;DHT22;293;53.888;11.464;2022-10-29T09:25:15;16.00;99.90
612;DHT22;293;53.888;11.464;2022-10-29T09:27:55;16.10;99.90
612;DHT22;293;53.888;11.464;2022-10-29T09:30:28;16.30;99.90
612;DHT22;293;53.888;11.464;2022-10-29T09:32:58;16.30;99.90
612;DHT22;293;53.888;11.464;2022-10-29T09:35:35;16.30;99.90
612;DHT22;293;53.888;11.464;2022-10-29T09:38:07;16.30;99.90
612;DHT22;293;53.888;11.464;2022-10-29T09:40:43;16.30;99.90
612;DHT22;293;53.888;11.464;2022-10-29T09:43:24;16.40;99.90
612;DHT22;293;53.888;11.464;2022-10-29T09:46:02;16.40;99.90
612;DHT22;293;53.888;11.464;2022-10-29T09:48:36;16.50;99.90
612;DHT22;293;53.888;11.464;2022-10-29T09:51:14;16.50;99.90
612;DHT22;293;53.888;11.464;2022-10-29T09:53:48;16.40;99.90
612;DHT22;293;53.888;11.464;2022-10-29T09:56:17;16.50;99.90
612;DHT22;293;53.888;11.464;2022-10-29T09:58:47;16.60;99.90
612;DHT22;293;53.888;11.464;2022-10-29T10:01:15;16.80;99.90
612;DHT22;293;53.888;11.464;2022-10-29T10:03:46;16.90;99.90
612;DHT22;293;53.888;11.464;2022-10-29T10:06:15;17.10;99.90
612;DHT22;293;53.888;11.464;2022-10-29T10:08:58;17.10;99.90
612;DHT22;293;53.888;11.464;2022-10-29T10:11:34;17.20;99.90
612;DHT22;293;53.888;11.464;2022-10-29T10:14:06;17.30;99.90
612;DHT22;293;53.888;11.464;2022-10-29T10:16:34;17.40;99.90
612;DHT22;293;53.888;11.464;2022-10-29T10:19:02;17.60;99.90
612;DHT22;293;53.888;11.464;2022-10-29T10:21:30;17.60;99.90
612;DHT22;293;53.888;11.464;2022-10-29T10:23:58;17.60;99.90
612;DHT22;293;53.888;11.464;2022-10-29T10:26:32;17.70;99.90
612;DHT22;293;53.888;11.464;2022-10-29T10:29:17;17.80;99.90
612;DHT22;293;53.888;11.464;2022-10-29T10:31:46;17.90;99.90
612;DHT22;293;53.888;11.464;2022-10-29T10:34:17;17.80;99.90
612;DHT22;293;53.888;11.464;2022-10-29T10:36:47;17.80;99.90
612;DHT22;293;53.888;11.464;2022-10-29T10:39:27;18.00;99.90
612;DHT22;293;53.888;11.464;2022-10-29T10:41:59;18.10;99.90
612;DHT22;293;53.888;11.464;2022-10-29T10:44:30;18.20;99.90
612;DHT22;293;53.888;11.464;2022-10-29T10:47:06;18.40;99.90
612;DHT22;293;53.888;11.464;2022-10-29T10:49:34;18.50;99.90
612;DHT22;293;53.888;11.464;2022-10-29T10:52:04;18.60;99.90
612;DHT22;293;53.888;11.464;2022-10-29T10:54:34;18.70;99.90
612;DHT22;293;53.888;11.464;2022-10-29T10:57:17;18.90;99.90
612;DHT22;293;53.888;11.464;2022-10-29T10:59:51;18.90;99.90
612;DHT22;293;53.888;11.464;2022-10-29T11:02:24;19.00;99.90
612;DHT22;293;53.888;11.464;2022-10-29T11:04:57;19.10;99.90
612;DHT22;293;53.888;11.464;2022-10-29T11:07:28;19.10;99.90
612;DHT22;293;53.888;11.464;2022-10-29T11:09:57;19.20;99.90
612;DHT22;293;53.888;11.464;2022-10-29T11:12:30;19.30;99.90
612;DHT22;293;53.888;11.464;2022-10-29T11:15:02;19.30;99.90
612;DHT22;293;53.888;11.464;2022-10-29T11:17:36;19.30;99.90
612;DHT22;293;53.888;11.464;2022-10-29T11:20:10;19.30;99.90
612;DHT22;293;53.888;11.464;2022-10-29T11:22:48;19.20;99.90
612;DHT22;293;53.888;11.464;2022-10-29T11:25:22;19.10;99.90
612;DHT22;293;53.888;11.464;2022-10-29T11:27:57;19.10;99.90
612;DHT22;293;53.888;11.464;2022-10-29T11:30:26;19.20;99.90
612;DHT22;293;53.888;11.464;2022-10-29T11:33:04;19.30;99.90
612;DHT22;293;53.888;11.464;2022-10-29T11:35:39;19.30;99.90
612;DHT22;293;53.888;11.464;2022-10-29T11:38:12;19.20;99.90
612;DHT22;293;53.888;11.464;2022-10-29T11:40:44;19.20;99.90
612;DHT22;293;53.888;11.464;2022-10-29T11:43:17;19.10;99.90
612;DHT22;293;53.888;11.464;2022-10-29T11:45:57;19.00;99.90
612;DHT22;293;53.888;11.464;2022-10-29T11:48:33;19.00;99.90
612;DHT22;293;53.888;11.464;2022-10-29T11:51:05;18.90;99.90
612;DHT22;293;53.888;11.464;2022-10-29T11:53:50;18.80;99.90
612;DHT22;293;53.888;11.464;2022-10-29T11:56:28;18.70;99.90
612;DHT22;293;53.888;11.464;2022-10-29T11:59:05;18.80;99.90
612;DHT22;293;53.888;11.464;2022-10-29T12:01:39;18.70;99.90
612;DHT22;293;53.888;11.464;2022-10-29T12:04:27;18.60;99.90
612;DHT22;293;53.888;11.464;2022-10-29T12:07:03;18.50;99.90
612;DHT22;293;53.888;11.464;2022-10-29T12:12:42;18.40;99.90
612;DHT22;293;53.888;11.464;2022-10-29T12:15:20;18.40;99.90
612;DHT22;293;53.888;11.464;2022-10-29T12:17:55;18.40;99.90
612;DHT22;293;53.888;11.464;2022-10-29T12:20:31;18.30;99.90
612;DHT22;293;53.888;11.464;2022-10-29T12:23:04;18.30;99.90
612;DHT22;293;53.888;11.464;2022-10-29T12:25:41;18.20;99.90
612;DHT22;293;53.888;11.464;2022-10-29T12:28:16;18.20;99.90
612;DHT22;293;53.888;11.464;2022-10-29T12:30:53;18.20;99.90
612;DHT22;293;53.888;11.464;2022-10-29T12:33:31;18.20;99.90
612;DHT22;293;53.888;11.464;2022-10-29T12:36:07;18.10;99.90
612;DHT22;293;53.888;11.464;2022-10-29T12:38:38;18.10;99.90
612;DHT22;293;53.888;11.464;2022-10-29T12:41:12;18.10;99.90
612;DHT22;293;53.888;11.464;2022-10-29T12:43:40;18.20;99.90
612;DHT22;293;53.888;11.464;2022-10-29T12:46:15;18.30;99.90
612;DHT22;293;53.888;11.464;2022-10-29T12:48:52;18.40;99.90
612;DHT22;293;53.888;11.464;2022-10-29T12:51:25;18.40;99.90
612;DHT22;293;53.888;11.464;2022-10-29T12:56:49;18.40;99.90
612;DHT22;293;53.888;11.464;2022-10-29T12:59:33;18.30;99.90
612;DHT22;293;53.888;11.464;2022-10-29T13:02:29;18.30;99.90
612;DHT22;293;53.888;11.464;2022-10-29T13:05:20;18.40;99.90
612;DHT22;293;53.888;11.464;2022-10-29T13:08:32;18.30;99.90
612;DHT22;293;53.888;11.464;2022-10-29T13:10:59;18.20;99.90
612;DHT22;293;53.888;11.464;2022-10-29T13:16:24;18.20;99.90
612;DHT22;293;53.888;11.464;2022-10-29T13:19:13;18.30;99.90
612;DHT22;293;53.888;11.464;2022-10-29T13:21:57;18.30;99.90
612;DHT22;293;53.888;11.464;2022-10-29T13:24:24;18.40;99.90
612;DHT22;293;53.888;11.464;2022-10-29T13:26:56;18.40;99.90
612;DHT22;293;53.888;11.464;2022-10-29T13:29:44;18.40;99.90
612;DHT22;293;53.888;11.464;2022-10-29T13:32:32;18.50;99.90
612;DHT22;293;53.888;11.464;2022-10-29T13:35:01;18.50;99.90
612;DHT22;293;53.888;11.464;2022-10-29T13:38:11;18.50;99.90
612;DHT22;293;53.888;11.464;2022-10-29T13:43:34;18.50;99.90
612;DHT22;293;53.888;11.464;2022-10-29T13:46:33;18.50;99.90
612;DHT22;293;53.888;11.464;2022-10-29T13:49:08;18.50;99.90
612;DHT22;293;53.888;11.464;2022-10-29T13:51:46;18.50;99.90
612;DHT22;293;53.888;11.464;2022-10-29T13:54:19;18.40;99.90
612;DHT22;293;53.888;11.464;2022-10-29T13:56:51;18.40;99.90
612;DHT22;293;53.888;11.464;2022-10-29T13:59:29;18.40;99.90
612;DHT22;293;53.888;11.464;2022-10-29T14:02:19;18.30;99.90
612;DHT22;293;53.888;11.464;2022-10-29T14:04:49;18.30;99.90
612;DHT22;293;53.888;11.464;2022-10-29T14:07:22;18.30;99.90
612;DHT22;293;53.888;11.464;2022-10-29T14:09:52;18.30;99.90
612;DHT22;293;53.888;11.464;2022-10-29T14:12:26;18.20;99.90
612;DHT22;293;53.888;11.464;2022-10-29T14:15:00;18.20;99.90
612;DHT22;293;53.888;11.464;2022-10-29T14:17:27;18.20;99.90
612;DHT22;293;53.888;11.464;2022-10-29T14:19:54;18.10;99.90
612;DHT22;293;53.888;11.464;2022-10-29T14:22:36;18.10;99.90
612;DHT22;293;53.888;11.464;2022-10-29T14:25:25;18.10;99.90
612;DHT22;293;53.888;11.464;2022-10-29T14:28:16;18.00;99.90
612;DHT22;293;53.888;11.464;2022-10-29T14:30:43;18.00;99.90
612;DHT22;293;53.888;11.464;2022-10-29T14:33:33;18.00;99.90
612;DHT22;293;53.888;11.464;2022-10-29T14:36:06;17.90;99.90
612;DHT22;293;53.888;11.464;2022-10-29T14:38:42;17.90;99.90
612;DHT22;293;53.888;11.464;2022-10-29T14:41:11;17.90;99.90
612;DHT22;293;53.888;11.464;2022-10-29T14:43:38;17.80;99.90
612;DHT22;293;53.888;11.464;2022-10-29T14:46:18;17.80;99.90
612;DHT22;293;53.888;11.464;2022-10-29T14:48:51;17.80;99.90
612;DHT22;293;53.888;11.464;2022-10-29T14:51:20;17.80;99.90
612;DHT22;293;53.888;11.464;2022-10-29T14:53:54;17.70;99.90
612;DHT22;293;53.888;11.464;2022-10-29T14:56:26;17.60;99.90
612;DHT22;293;53.888;11.464;2022-10-29T14:58:56;17.60;99.90
612;DHT22;293;53.888;11.464;2022-10-29T15:01:22;17.60;99.90
612;DHT22;293;53.888;11.464;2022-10-29T15:03:55;17.60;99.90
612;DHT22;293;53.888;11.464;2022-10-29T15:06:25;17.60;99.90
612;DHT22;293;53.888;11.464;2022-10-29T15:08:56;17.60;99.90
612;DHT22;293;53.888;11.464;2022-10-29T15:11:32;17.60;99.90
612;DHT22;293;53.888;11.464;2022-10-29T15:14:00;17.50;99.90
612;DHT22;293;53.888;11.464;2022-10-29T15:16:28;17.50;99.90
612;DHT22;293;53.888;11.464;2022-10-29T15:18:56;17.40;99.90
612;DHT22;293;53.888;11.464;2022-10-29T15:21:26;17.40;99.90
612;DHT22;293;53.888;11.464;2022-10-29T15:23:59;17.40;99.90
612;DHT22;293;53.888;11.464;2022-10-29T15:26:28;17.30;99.90
612;DHT22;293;53.888;11.464;2022-10-29T15:28:56;17.30;99.90
612;DHT22;293;53.888;11.464;2022-10-29T15:31:27;17.30;99.90
612;DHT22;293;53.888;11.464;2022-10-29T15:33:56;17.30;99.90
612;DHT22;293;53.888;11.464;2022-10-29T15:36:28;17.30;99.90
612;DHT22;293;53.888;11.464;2022-10-29T15:39:21;17.20;99.90
612;DHT22;293;53.888;11.464;2022-10-29T15:41:52;17.20;99.90
612;DHT22;293;53.888;11.464;2022-10-29T15:44:28;17.20;99.90
612;DHT22;293;53.888;11.464;2022-10-29T15:46:56;17.20;99.90
612;DHT22;293;53.888;11.464;2022-10-29T15:49:24;17.20;99.90
612;DHT22;293;53.888;11.464;2022-10-29T15:51:51;17.20;99.90
612;DHT22;293;53.888;11.464;2022-10-29T15:54:20;17.10;99.90
612;DHT22;293;53.888;11.464;2022-10-29T15:56:47;17.10;99.90
612;DHT22;293;53.888;11.464;2022-10-29T15:59:18;17.10;99.90
612;DHT22;293;53.888;11.464;2022-10-29T16:01:45;17.10;99.90
612;DHT22;293;53.888;11.464;2022-10-29T16:04:12;17.10;99.90
612;DHT22;293;53.888;11.464;2022-10-29T16:06:39;17.00;99.90
612;DHT22;293;53.888;11.464;2022-10-29T16:09:08;17.00;99.90
612;DHT22;293;53.888;11.464;2022-10-29T16:11:42;17.00;99.90
612;DHT22;293;53.888;11.464;2022-10-29T16:14:09;17.00;99.90
612;DHT22;293;53.888;11.464;2022-10-29T16:16:36;17.00;99.90
612;DHT22;293;53.888;11.464;2022-10-29T16:19:03;17.00;99.90
612;DHT22;293;53.888;11.464;2022-10-29T16:21:30;17.00;99.90
612;DHT22;293;53.888;11.464;2022-10-29T16:23:56;17.00;99.90
612;DHT22;293;53.888;11.464;2022-10-29T16:26:24;17.00;99.90
612;DHT22;293;53.888;11.464;2022-10-29T16:28:52;17.00;99.90
612;DHT22;293;53.888;11.464;2022-10-29T16:31:21;17.00;99.90
612;DHT22;293;53.888;11.464;2022-10-29T16:33:50;17.00;99.90
612;DHT22;293;53.888;11.464;2022-10-29T16:36:17;17.00;99.90
612;DHT22;293;53.888;11.464;2022-10-29T16:38:44;17.00;99.90
612;DHT22;293;53.888;11.464;2022-10-29T16:41:13;16.90;99.90
612;DHT22;293;53.888;11.464;2022-10-29T16:43:41;16.90;99.90
612;DHT22;293;53.888;11.464;2022-10-29T16:46:10;17.00;99.90
612;DHT22;293;53.888;11.464;2022-10-29T16:48:37;16.90;99.90
612;DHT22;293;53.888;11.464;2022-10-29T16:51:04;17.00;99.90
612;DHT22;293;53.888;11.464;2022-10-29T16:53:31;17.00;99.90
612;DHT22;293;53.888;11.464;2022-10-29T16:55:58;17.00;99.90
612;DHT22;293;53.888;11.464;2022-10-29T16:58:26;17.00;99.90